createdAt,value
2022-12-01T00:00:16.285Z,17.70
2022-12-01T00:05:18.326Z,16.73
2022-12-01T00:10:26.555Z,18.10
2022-12-01T00:15:31.650Z,15.43
2022-12-01T00:20:35.255Z,16.52
2022-12-01T00:25:37.381Z,18.02
2022-12-01T00:30:39.412Z,16.27
2022-12-01T00:35:41.456Z,18.50
2022-12-01T00:40:43.559Z,16.13
2022-12-01T00:45:45.771Z,14.30
2022-12-01T00:50:48.238Z,17.55
2022-12-01T00:55:50.487Z,15.60
2022-12-01T01:01:01.181Z,17.58
2022-12-01T01:06:06.395Z,18.05
2022-12-01T01:11:09.550Z,15.52
2022-12-01T01:16:18.218Z,15.10
2022-12-01T01:21:22.204Z,16.98
2022-12-01T01:26:27.441Z,16.75
2022-12-01T01:31:31.453Z,16.20
2022-12-01T01:36:33.545Z,15.18
2022-12-01T01:41:35.579Z,16.90
2022-12-01T01:46:37.892Z,16.15
2022-12-01T01:51:58.274Z,16.60
2022-12-01T01:57:01.948Z,14.57
2022-12-01T02:02:06.915Z,14.57
2022-12-01T02:07:11.488Z,15.75
2022-12-01T02:12:16.677Z,15.88
2022-12-01T02:17:41.834Z,17.25
2022-12-01T02:23:13.100Z,16.73
2022-12-01T02:28:52.622Z,15.50
2022-12-01T02:34:01.977Z,16.05
2022-12-01T02:39:17.350Z,15.20
2022-12-01T02:44:32.549Z,14.57
2022-12-01T02:49:40.408Z,16.30
2022-12-01T02:54:45.827Z,18.15
2022-12-01T02:59:53.689Z,17.08
2022-12-01T03:05:04.650Z,18.30
2022-12-01T03:10:16.112Z,17.67
2022-12-01T03:15:32.245Z,15.75
2022-12-01T03:20:57.901Z,13.55
2022-12-01T03:26:03.964Z,18.88
2022-12-01T03:31:10.008Z,16.83
2022-12-01T03:36:38.109Z,19.30
2022-12-01T03:41:45.709Z,17.77
2022-12-01T03:46:54.105Z,18.50
2022-12-01T03:51:59.052Z,18.08
2022-12-01T03:57:06.305Z,18.58
2022-12-01T04:02:08.862Z,17.67
2022-12-01T04:07:13.609Z,17.67
2022-12-01T04:12:31.069Z,16.75
2022-12-01T04:17:33.152Z,18.15
2022-12-01T04:22:35.180Z,18.17
2022-12-01T04:27:38.085Z,17.45
2022-12-01T04:32:42.046Z,18.60
2022-12-01T04:37:44.111Z,18.13
2022-12-01T04:42:46.183Z,18.40
2022-12-01T04:47:53.080Z,17.52
2022-12-01T04:52:55.304Z,17.02
2022-12-01T04:57:58.183Z,19.20
2022-12-01T05:03:00.810Z,16.85
2022-12-01T05:08:03.002Z,19.75
2022-12-01T05:13:05.916Z,21.00
2022-12-01T05:18:07.965Z,17.33
2022-12-01T05:23:16.362Z,21.15
2022-12-01T05:28:19.558Z,19.20
2022-12-01T05:33:23.393Z,19.75
2022-12-01T05:38:25.504Z,19.58
2022-12-01T05:43:29.582Z,19.30
2022-12-01T05:48:32.201Z,19.23
2022-12-01T05:53:34.267Z,20.33
2022-12-01T05:58:36.603Z,21.05
2022-12-01T06:03:38.698Z,21.20
2022-12-01T06:08:40.753Z,19.83
2022-12-01T06:13:42.795Z,21.38
2022-12-01T06:18:44.873Z,21.38
2022-12-01T06:23:46.979Z,20.75
2022-12-01T06:28:49.036Z,21.23
2022-12-01T06:33:51.081Z,22.27
2022-12-01T06:38:53.070Z,21.55
2022-12-01T06:43:55.110Z,22.58
2022-12-01T06:48:57.338Z,21.88
2022-12-01T06:54:05.066Z,22.38
2022-12-01T06:59:07.662Z,22.08
2022-12-01T07:04:09.828Z,22.45
2022-12-01T07:09:11.852Z,22.35
2022-12-01T07:14:23.417Z,23.55
2022-12-01T07:19:25.622Z,23.50
2022-12-01T07:24:27.692Z,23.48
2022-12-01T07:29:29.700Z,24.13
2022-12-01T07:34:31.720Z,22.98
2022-12-01T07:39:33.754Z,25.20
2022-12-01T07:44:35.757Z,24.45
2022-12-01T07:49:38.167Z,24.15
2022-12-01T07:54:41.286Z,25.60
2022-12-01T07:59:43.441Z,24.77
2022-12-01T08:04:45.515Z,26.30
2022-12-01T08:09:47.859Z,25.73
2022-12-01T08:14:50.233Z,27.70
2022-12-01T08:19:52.354Z,27.63
2022-12-01T08:24:54.440Z,29.65
2022-12-01T08:29:56.456Z,29.48
2022-12-01T08:34:58.479Z,32.95
2022-12-01T08:40:00.625Z,29.80
2022-12-01T08:45:02.872Z,31.85
2022-12-01T08:50:06.612Z,32.08
2022-12-01T08:55:09.420Z,30.50
2022-12-01T09:00:12.554Z,31.38
2022-12-01T09:05:14.743Z,30.98
2022-12-01T09:10:16.984Z,32.85
2022-12-01T09:15:19.039Z,33.10
2022-12-01T09:25:23.193Z,33.75
2022-12-01T09:35:27.337Z,32.95
2022-12-01T09:40:43.300Z,33.75
2022-12-01T09:45:51.760Z,32.03
2022-12-01T09:50:54.414Z,31.92
2022-12-01T09:56:02.544Z,34.13
2022-12-01T10:01:17.987Z,35.80
2022-12-01T10:06:29.771Z,34.47
2022-12-01T10:11:36.181Z,30.52
2022-12-01T10:16:49.349Z,29.08
2022-12-01T10:22:26.983Z,30.40
2022-12-01T10:27:38.560Z,30.58
2022-12-01T10:33:15.860Z,31.45
2022-12-01T10:38:30.786Z,34.40
2022-12-01T10:43:44.217Z,32.92
2022-12-01T10:48:57.858Z,32.38
2022-12-01T10:54:11.527Z,32.83
2022-12-01T10:59:27.150Z,35.60
2022-12-01T11:04:29.170Z,36.17
2022-12-01T11:14:37.294Z,37.63
2022-12-01T11:19:39.394Z,39.15
2022-12-01T11:24:55.773Z,39.65
2022-12-01T11:30:10.375Z,40.13
2022-12-01T11:35:21.637Z,39.58
2022-12-01T11:40:46.223Z,36.28
2022-12-01T11:45:48.594Z,38.45
2022-12-01T11:51:02.036Z,37.03
2022-12-01T11:56:13.094Z,38.25
2022-12-01T12:01:22.247Z,34.50
2022-12-01T12:06:41.426Z,36.35
2022-12-01T12:12:23.312Z,35.00
2022-12-01T12:22:58.826Z,32.25
2022-12-01T12:28:25.535Z,37.05
2022-12-01T12:33:37.895Z,35.00
2022-12-01T12:39:01.138Z,33.95
2022-12-01T12:44:30.024Z,34.92
2022-12-01T12:49:49.334Z,33.83
2022-12-01T12:54:57.326Z,33.67
2022-12-01T13:00:14.594Z,32.60
2022-12-01T13:05:49.517Z,32.38
2022-12-01T13:11:06.811Z,33.70
2022-12-01T13:16:19.303Z,30.83
2022-12-01T13:21:24.113Z,35.47
2022-12-01T13:26:26.541Z,33.33
2022-12-01T13:31:28.710Z,37.90
2022-12-01T13:36:48.434Z,37.15
2022-12-01T13:42:07.330Z,33.70
2022-12-01T13:47:12.383Z,33.22
2022-12-01T13:52:23.355Z,32.97
2022-12-01T13:57:31.839Z,34.70
2022-12-01T14:02:35.882Z,33.08
2022-12-01T14:07:38.932Z,35.78
2022-12-01T14:12:45.712Z,33.97
2022-12-01T14:17:53.772Z,34.42
2022-12-01T14:23:15.078Z,32.55
2022-12-01T14:33:48.042Z,29.25
2022-12-01T14:38:59.153Z,28.75
2022-12-01T14:44:10.891Z,28.98
2022-12-01T14:49:17.983Z,29.30
2022-12-01T14:54:29.096Z,25.83
2022-12-01T14:59:31.560Z,29.15
2022-12-01T15:04:34.485Z,27.50
2022-12-01T15:09:36.673Z,26.80
2022-12-01T15:14:47.516Z,28.50
2022-12-01T15:19:51.038Z,23.77
2022-12-01T15:24:53.378Z,26.23
2022-12-01T15:29:58.399Z,25.42
2022-12-01T15:35:05.498Z,23.08
2022-12-01T15:40:54.483Z,25.20
2022-12-01T15:45:42.778Z,27.35
2022-12-01T15:50:58.961Z,27.95
2022-12-01T15:56:05.086Z,26.60
2022-12-01T16:01:14.533Z,25.35
2022-12-01T16:06:18.103Z,26.23
2022-12-01T16:11:22.088Z,25.48
2022-12-01T16:16:45.892Z,25.38
2022-12-01T16:21:49.323Z,24.92
2022-12-01T16:27:00.463Z,23.75
2022-12-01T16:37:24.028Z,21.17
2022-12-01T16:42:27.561Z,22.55
2022-12-01T16:47:31.933Z,24.45
2022-12-01T16:52:44.249Z,24.40
2022-12-01T16:57:47.223Z,27.70
2022-12-01T17:02:50.119Z,23.85
2022-12-01T17:07:52.341Z,22.58
2022-12-01T17:12:55.207Z,24.25
2022-12-01T17:17:57.400Z,21.70
2022-12-01T17:22:59.924Z,21.85
2022-12-01T17:28:02.135Z,23.83
2022-12-01T17:33:04.412Z,23.48
2022-12-01T17:38:06.643Z,24.58
2022-12-01T17:43:08.747Z,22.83
2022-12-01T17:48:11.279Z,21.55
2022-12-01T17:53:13.323Z,22.15
2022-12-01T17:58:18.191Z,20.83
2022-12-01T18:03:21.446Z,21.52
2022-12-01T18:08:25.681Z,23.05
2022-12-01T18:13:29.797Z,20.90
2022-12-01T18:18:31.996Z,19.23
2022-12-01T18:23:34.954Z,21.33
2022-12-01T18:28:37.343Z,18.70
2022-12-01T18:33:41.857Z,22.05
2022-12-01T18:38:44.517Z,20.20
2022-12-01T18:43:47.097Z,19.65
2022-12-01T18:48:54.432Z,19.17
2022-12-01T18:53:58.475Z,19.98
2022-12-01T18:59:03.755Z,19.20
2022-12-01T19:04:08.781Z,20.33
2022-12-01T19:09:13.057Z,20.83
2022-12-01T19:14:17.627Z,19.17
2022-12-01T19:19:21.354Z,21.48
2022-12-01T19:24:23.515Z,20.58
2022-12-01T19:29:25.870Z,19.85
2022-12-01T19:34:28.132Z,21.40
2022-12-01T19:39:30.548Z,19.17
2022-12-01T19:44:33.138Z,18.00
2022-12-01T19:49:35.635Z,18.17
2022-12-01T19:54:37.927Z,20.80
2022-12-01T19:59:40.116Z,16.90
2022-12-01T20:04:43.660Z,17.70
2022-12-01T20:09:49.885Z,18.27
2022-12-01T20:14:52.885Z,18.92
2022-12-01T20:19:55.408Z,17.73
2022-12-01T20:24:57.507Z,14.63
2022-12-01T20:29:59.688Z,17.75
2022-12-01T20:35:02.047Z,17.05
2022-12-01T20:40:06.333Z,18.58
2022-12-01T20:45:08.487Z,18.77
2022-12-01T20:50:10.871Z,19.27
2022-12-01T20:55:13.106Z,16.23
2022-12-01T21:00:15.798Z,19.08
2022-12-01T21:05:18.147Z,17.27
2022-12-01T21:10:20.776Z,17.45
2022-12-01T21:15:28.870Z,20.05
2022-12-01T21:20:36.064Z,18.48
2022-12-01T21:25:39.949Z,18.58
2022-12-01T21:30:42.197Z,18.58
2022-12-01T21:35:44.448Z,17.98
2022-12-01T21:40:47.076Z,18.88
2022-12-01T21:45:56.241Z,19.70
2022-12-01T21:51:01.849Z,18.90
2022-12-01T21:56:04.277Z,18.00
2022-12-01T22:01:23.318Z,19.63
2022-12-01T22:06:30.567Z,20.58
2022-12-01T22:11:32.900Z,20.08
2022-12-01T22:16:47.235Z,19.20
2022-12-01T22:29:00.193Z,18.20
2022-12-01T22:34:03.496Z,18.15
2022-12-01T22:39:26.658Z,18.88
2022-12-01T22:44:30.940Z,17.58
2022-12-01T22:49:34.267Z,18.38
2022-12-01T22:54:43.584Z,19.58
2022-12-01T22:59:47.851Z,16.23
2022-12-01T23:04:56.967Z,18.08
2022-12-01T23:10:19.368Z,17.80
2022-12-01T23:15:45.014Z,18.52
2022-12-01T23:20:55.384Z,18.42
2022-12-01T23:25:58.617Z,18.60
2022-12-01T23:31:00.829Z,19.92
2022-12-01T23:36:07.350Z,18.10
2022-12-01T23:41:33.568Z,19.95
2022-12-01T23:46:36.575Z,21.38
2022-12-01T23:51:44.232Z,20.67
2022-12-01T23:56:57.052Z,20.55
